Time;durP1;ratioP1;P1;durP2;ratioP2;P2;SDS_P1;SDS_P2;PMS_P1;PMS_P2;Temp;Humidity;BMP_temperature;BMP_pressure;BME280_temperature;BME280_humidity;BME280_pressure;Samples;Min_cycle;Max_cycle;Signal;HPM_P1;HPM_P2
2021/05/10 02:46:53;;;;;;;22.50;21.63;;;;;;;;;;5688166;22;94286;-85
2021/05/10 02:49:19;;;;;;;27.63;26.27;;;21.90;42.60;;;;;;4966799;28;92089;-86
2021/05/10 02:51:46;;;;;;;29.80;28.70;;;21.50;42.60;;;;;;4983572;28;91434;-86
2021/05/10 02:54:11;;;;;;;30.65;29.33;;;21.60;42.70;;;;;;4985353;28;91986;-86
2021/05/10 02:56:37;;;;;;;46.05;44.05;;;21.90;43.30;;;;;;4976802;28;92152;-85
2021/05/10 02:59:03;;;;;;;36.65;34.72;;;21.20;42.80;;;;;;4968023;28;93802;-86
2021/05/10 03:01:29;;;;;;;37.10;35.67;;;20.80;42.80;;;;;;4995030;28;93299;-85
2021/05/10 03:03:55;;;;;;;28.92;27.75;;;21.20;42.60;;;;;;4974093;28;92125;-86
2021/05/10 03:06:31;;;;;;;37.90;36.40;;;21.40;43.20;;;;;;4977747;28;92094;-86
2021/05/10 03:08:57;;;;;;;28.75;27.45;;;21.20;43.50;;;;;;4989004;28;91644;-85
2021/05/10 03:11:23;;;;;;;29.92;28.75;;;21.60;42.90;;;;;;4984486;28;91965;-86
2021/05/10 03:13:49;;;;;;;39.03;37.35;;;;;;;;;;4983769;28;92608;-86
2021/05/10 03:16:14;;;;;;;34.35;32.88;;;20.90;42.70;;;;;;4993147;28;91764;-86
2021/05/10 03:18:40;;;;;;;29.67;28.38;;;21.40;42.70;;;;;;4980813;28;92532;-85
2021/05/10 03:21:06;;;;;;;36.45;34.95;;;;;;;;;;4966343;28;92040;-87
2021/05/10 03:23:32;;;;;;;24.95;23.98;;;21.10;42.30;;;;;;4980498;28;93136;-86
2021/05/10 03:25:58;;;;;;;27.40;26.10;;;;;;;;;;4973823;28;92018;-87
2021/05/10 03:28:24;;;;;;;26.35;25.15;;;21.10;42.10;;;;;;4969031;28;91938;-87
2021/05/10 03:30:49;;;;;;;61.25;58.90;;;21.20;42.80;;;;;;4961552;28;93751;-86
2021/05/10 03:33:15;;;;;;;26.02;24.80;;;21.20;41.70;;;;;;4978118;28;91793;-87
2021/05/10 03:35:41;;;;;;;26.17;25.20;;;;;;;;;;4980315;28;92278;-82
2021/05/10 03:38:07;;;;;;;26.60;25.60;;;21.10;41.50;;;;;;4972446;28;92532;-87
2021/05/10 03:40:32;;;;;;;24.70;23.75;;;21.30;41.70;;;;;;4977425;28;92946;-84
2021/05/10 03:42:59;;;;;;;28.75;27.35;;;;;;;;;;4971714;28;91785;-87
2021/05/10 03:45:25;;;;;;;28.08;26.98;;;21.40;41.40;;;;;;4982050;28;91853;-88
2021/05/10 03:47:50;;;;;;;28.85;27.55;;;21.80;41.90;;;;;;4968279;28;92663;-87
2021/05/10 03:50:21;;;;;;;30.95;29.65;;;21.40;41.50;;;;;;4964452;28;94053;-87
2021/05/10 03:52:49;;;;;;;22.60;21.50;;;21.50;41.60;;;;;;4971838;28;91862;-85
2021/05/10 03:55:17;;;;;;;16.85;16.25;;;21.50;40.90;;;;;;4972676;28;92095;-86
2021/05/10 03:57:44;;;;;;;14.70;14.00;;;21.90;41.20;;;;;;4963410;28;93148;-85
2021/05/10 04:00:12;;;;;;;14.60;13.80;;;22.10;41.40;;;;;;4966436;28;91965;-86
2021/05/10 04:02:39;;;;;;;20.63;19.83;;;21.70;40.60;;;;;;4959468;28;93064;-87
2021/05/10 04:07:53;;;;;;;22.27;21.38;;;22.00;40.60;;;;;;4963674;28;93213;-87
2021/05/10 04:15:32;;;;;;;52.20;49.83;;;22.10;40.20;;;;;;4965186;28;91935;-86
2021/05/10 04:17:58;;;;;;;53.45;51.20;;;;;;;;;;4964708;28;92207;-84
2021/05/10 04:20:24;;;;;;;51.38;49.28;;;21.70;40.50;;;;;;4964770;28;92381;-85
2021/05/10 04:22:50;;;;;;;50.95;48.78;;;21.60;40.10;;;;;;4965453;28;92053;-85
2021/05/10 04:25:16;;;;;;;54.63;52.45;;;22.50;40.80;;;;;;4961204;28;92347;-85
2021/05/10 04:27:41;;;;;;;62.42;59.65;;;22.00;40.60;;;;;;4965865;28;92022;-85
2021/05/10 04:30:08;;;;;;;85.80;82.40;;;21.90;40.40;;;;;;4948234;28;96558;-85
2021/05/10 04:32:34;;;;;;;60.80;58.00;;;21.60;40.10;;;;;;4959230;28;91737;-86
2021/05/10 04:34:59;;;;;;;46.38;44.55;;;22.10;39.80;;;;;;4964224;28;92076;-85
2021/05/10 04:37:25;;;;;;;60.92;58.53;;;21.90;39.60;;;;;;4963856;28;92867;-85
2021/05/10 04:39:51;;;;;;;60.00;57.47;;;22.40;40.30;;;;;;4960414;28;92109;-86
2021/05/10 04:42:16;;;;;;;56.40;54.05;;;21.70;39.50;;;;;;4963243;28;91811;-85
2021/05/10 04:44:42;;;;;;;53.97;51.72;;;22.40;39.90;;;;;;4944465;28;92097;-85
2021/05/10 04:47:08;;;;;;;67.63;64.80;;;22.30;40.30;;;;;;4958275;28;92173;-86
2021/05/10 04:49:33;;;;;;;94.97;91.18;;;22.00;40.20;;;;;;4969548;28;91834;-85
2021/05/10 04:51:59;;;;;;;67.13;64.50;;;22.10;39.80;;;;;;4959806;28;91852;-85
2021/05/10 04:54:25;;;;;;;68.28;65.68;;;21.90;40.00;;;;;;4964027;28;91210;-85
2021/05/10 04:56:50;;;;;;;51.83;49.58;;;22.00;39.90;;;;;;4968974;28;93058;-85
2021/05/10 04:59:16;;;;;;;55.58;53.42;;;21.50;39.40;;;;;;4963373;28;92083;-87
2021/05/10 05:01:43;;;;;;;64.60;61.95;;;;;;;;;;4962915;28;93054;-90
2021/05/10 05:04:09;;;;;;;65.57;62.92;;;21.80;40.30;;;;;;4963848;28;91954;-86
2021/05/10 05:06:35;;;;;;;69.72;66.88;;;;;;;;;;4962147;28;92638;-86
2021/05/10 05:09:01;;;;;;;100.70;96.80;;;22.30;39.90;;;;;;4961974;28;91984;-86
2021/05/10 05:11:27;;;;;;;90.68;87.18;;;;;;;;;;4963543;28;91950;-82
2021/05/10 05:13:52;;;;;;;81.78;78.60;;;22.50;39.70;;;;;;4961931;28;92069;-87
2021/05/10 05:16:18;;;;;;;98.32;94.53;;;22.20;40.00;;;;;;4955368;28;92721;-85
2021/05/10 05:18:44;;;;;;;98.47;94.57;;;21.80;39.80;;;;;;4962346;28;91323;-87
2021/05/10 05:21:09;;;;;;;85.30;81.93;;;21.70;39.30;;;;;;4956404;28;91956;-85
2021/05/10 05:23:35;;;;;;;88.28;84.90;;;22.30;40.10;;;;;;4968600;28;92002;-86
2021/05/10 05:26:04;;;;;;;52.72;50.42;;;22.10;39.00;;;;;;4960797;28;92945;-87
2021/05/10 05:28:31;;;;;;;59.20;56.67;;;22.10;39.50;;;;;;4958258;28;93934;-84
2021/05/10 05:30:58;;;;;;;58.50;55.97;;;22.70;40.10;;;;;;4953763;28;91980;-86
2021/05/10 05:33:25;;;;;;;47.58;45.67;;;22.00;39.50;;;;;;4961053;28;91997;-85
2021/05/10 05:35:53;;;;;;;42.92;40.83;;;22.10;38.80;;;;;;4962409;28;92057;-85
2021/05/10 05:38:19;;;;;;;49.55;47.47;;;22.30;39.40;;;;;;4962400;28;92179;-86
2021/05/10 05:40:45;;;;;;;42.78;40.95;;;22.60;39.60;;;;;;4944753;28;92175;-87
2021/05/10 05:43:12;;;;;;;45.05;43.25;;;22.00;39.20;;;;;;4962521;28;91346;-88
2021/05/10 05:45:39;;;;;;;41.25;39.35;;;22.00;39.00;;;;;;4964741;28;92202;-88
2021/05/10 05:48:07;;;;;;;39.88;38.17;;;22.20;38.90;;;;;;4962949;28;92687;-86
2021/05/10 05:50:34;;;;;;;38.53;37.03;;;22.10;39.30;;;;;;4962854;28;92952;-84
2021/05/10 05:53:00;;;;;;;66.28;63.60;;;;;;;;;;4941757;28;91960;-87
2021/05/10 05:55:27;;;;;;;41.08;39.40;;;22.00;39.00;;;;;;4963239;28;92555;-85
2021/05/10 05:57:56;;;;;;;56.20;53.83;;;22.60;39.30;;;;;;4963486;28;91986;-87
2021/05/10 06:00:22;;;;;;;44.30;42.50;;;22.30;39.50;;;;;;4961839;28;92430;-86
2021/05/10 06:02:49;;;;;;;57.60;55.22;;;22.40;39.00;;;;;;4964531;28;92104;-87
2021/05/10 06:05:15;;;;;;;34.70;32.83;;;22.40;38.30;;;;;;4965125;28;93239;-87
2021/05/10 06:07:45;;;;;;;25.77;24.67;;;22.50;38.90;;;;;;4963291;28;92032;-86
2021/05/10 06:10:14;;;;;;;40.05;38.17;;;22.60;38.80;;;;;;4959988;28;91781;-86
2021/05/10 06:12:41;;;;;;;23.70;22.50;;;;;;;;;;4965403;28;92158;-86
2021/05/10 06:15:07;;;;;;;32.40;30.95;;;22.80;37.80;;;;;;4962881;28;93359;-86
2021/05/10 06:17:35;;;;;;;25.73;24.63;;;23.00;38.80;;;;;;4965241;28;94013;-85
2021/05/10 06:20:06;;;;;;;22.83;21.92;;;22.90;37.90;;;;;;4976011;28;92051;-86
2021/05/10 06:22:32;;;;;;;16.05;15.45;;;23.20;37.80;;;;;;4958910;28;92143;-85
2021/05/10 06:24:58;;;;;;;15.35;14.55;;;23.30;37.80;;;;;;4965642;28;92944;-85
2021/05/10 06:27:24;;;;;;;17.10;16.20;;;23.30;38.70;;;;;;4966784;28;92166;-86
2021/05/10 06:29:50;;;;;;;16.33;15.63;;;23.50;37.20;;;;;;4973784;28;92069;-85
2021/05/10 06:32:16;;;;;;;14.77;14.02;;;;;;;;;;4956425;28;92685;-85
2021/05/10 06:34:42;;;;;;;15.20;14.50;;;23.20;37.40;;;;;;4965525;28;92621;-87
2021/05/10 06:37:08;;;;;;;16.85;16.15;;;23.20;37.10;;;;;;4971324;28;91970;-87
2021/05/10 06:39:34;;;;;;;13.27;12.68;;;;;;;;;;4958550;28;93865;-86
2021/05/10 06:42:00;;;;;;;12.07;11.48;;;;;;;;;;4947056;28;92177;-87
2021/05/10 06:44:26;;;;;;;11.75;11.13;;;;;;;;;;4966712;28;92072;-87
2021/05/10 06:46:52;;;;;;;12.85;12.25;;;23.10;37.20;;;;;;4965704;28;91928;-87
2021/05/10 06:49:18;;;;;;;25.67;24.63;;;23.30;37.90;;;;;;4969855;28;91790;-86
2021/05/10 06:51:43;;;;;;;12.95;12.25;;;23.40;37.60;;;;;;4950879;28;91917;-87
2021/05/10 06:54:09;;;;;;;13.10;12.32;;;23.30;37.00;;;;;;4960546;28;92247;-85
2021/05/10 06:56:34;;;;;;;13.45;12.75;;;23.40;37.80;;;;;;4966001;28;91367;-87
2021/05/10 06:59:00;;;;;;;15.38;14.70;;;23.40;38.00;;;;;;4965280;28;92046;-86
2021/05/10 07:01:26;;;;;;;13.35;12.75;;;23.70;37.80;;;;;;4966273;28;92023;-86
2021/05/10 07:03:51;;;;;;;13.20;12.55;;;23.90;37.30;;;;;;4969013;28;94109;-86
2021/05/10 07:06:17;;;;;;;14.07;13.38;;;23.90;37.50;;;;;;4961202;28;93907;-86
2021/05/10 07:08:43;;;;;;;12.60;12.05;;;23.60;37.30;;;;;;4961809;28;92438;-87
2021/05/10 07:11:08;;;;;;;15.13;14.52;;;23.60;37.70;;;;;;4961149;28;91935;-86
2021/05/10 07:13:35;;;;;;;17.35;16.55;;;;;;;;;;4952151;28;92407;-86
2021/05/10 07:16:00;;;;;;;14.73;14.02;;;23.70;38.00;;;;;;4965679;28;92916;-87
2021/05/10 07:18:26;;;;;;;14.82;14.02;;;23.60;38.60;;;;;;4966485;28;91717;-86
2021/05/10 07:20:52;;;;;;;14.55;13.70;;;23.60;38.40;;;;;;4970498;28;91257;-86
2021/05/10 07:23:18;;;;;;;18.48;17.63;;;23.90;38.40;;;;;;4953830;28;93590;-87
2021/05/10 07:25:46;;;;;;;16.75;15.93;;;23.90;38.90;;;;;;4952367;28;91906;-86
2021/05/10 07:28:15;;;;;;;21.00;19.95;;;24.40;37.40;;;;;;4965076;28;92766;-87
2021/05/10 07:30:41;;;;;;;21.77;20.67;;;24.30;37.10;;;;;;4963370;28;92064;-88
2021/05/10 07:33:07;;;;;;;25.13;24.00;;;24.40;37.40;;;;;;4965004;28;93216;-87
2021/05/10 07:35:33;;;;;;;29.40;28.23;;;24.40;37.40;;;;;;4953002;28;93123;-88
2021/05/10 07:38:00;;;;;;;42.00;39.63;;;24.60;37.60;;;;;;4947078;28;91887;-87
2021/05/10 07:40:26;;;;;;;34.28;32.85;;;24.80;37.20;;;;;;4947254;28;92704;-88
2021/05/10 07:42:53;;;;;;;53.63;51.55;;;;;;;;;;4964789;28;92070;-87
2021/05/10 07:45:19;;;;;;;61.30;58.65;;;25.00;36.40;;;;;;4961034;28;91485;-87
2021/05/10 07:47:49;;;;;;;66.60;63.78;;;24.90;37.00;;;;;;4965000;28;91931;-88
2021/05/10 07:50:15;;;;;;;66.30;63.28;;;;;;;;;;4966335;28;92488;-87
2021/05/10 07:52:40;;;;;;;66.35;63.80;;;25.00;35.90;;;;;;4973064;28;93694;-87
2021/05/10 07:55:07;;;;;;;52.72;50.53;;;25.00;36.30;;;;;;4968809;28;92146;-86
2021/05/10 07:57:32;;;;;;;62.55;60.00;;;25.00;36.90;;;;;;4965623;28;92050;-86
2021/05/10 07:59:58;;;;;;;53.72;51.40;;;25.00;36.60;;;;;;4976102;28;92049;-87
2021/05/10 08:02:24;;;;;;;64.22;61.65;;;25.00;35.90;;;;;;4936490;28;93802;-86
2021/05/10 08:04:52;;;;;;;64.80;62.00;;;25.10;36.40;;;;;;4965183;28;91941;-87
2021/05/10 08:07:19;;;;;;;79.25;76.15;;;25.40;35.20;;;;;;4957345;28;91882;-87
2021/05/10 08:09:46;;;;;;;83.80;80.50;;;25.60;36.30;;;;;;4974599;28;91736;-87
2021/05/10 08:12:12;;;;;;;75.85;72.65;;;25.70;35.90;;;;;;4965272;28;92625;-87
2021/05/10 08:14:39;;;;;;;80.88;77.65;;;25.60;36.30;;;;;;4966002;28;92454;-87
2021/05/10 08:17:05;;;;;;;32.80;31.38;;;25.70;35.00;;;;;;4966021;28;92867;-87
2021/05/10 08:19:31;;;;;;;38.85;37.22;;;;;;;;;;4963318;28;91948;-87
2021/05/10 08:21:58;;;;;;;46.75;44.78;;;25.70;35.40;;;;;;4965084;28;92333;-87
2021/05/10 08:24:24;;;;;;;51.80;49.40;;;26.10;35.50;;;;;;4957035;28;93182;-86
2021/05/10 08:26:50;;;;;;;61.35;58.92;;;;;;;;;;4956417;28;91875;-89
2021/05/10 08:29:16;;;;;;;49.30;47.20;;;28.50;33.30;;;;;;4962102;28;92119;-86
2021/05/10 08:31:44;;;;;;;46.30;43.83;;;29.00;34.80;;;;;;4967676;28;92347;-87
2021/05/10 08:34:10;;;;;;;28.20;27.00;;;;;;;;;;4959072;28;91240;-87
2021/05/10 08:36:36;;;;;;;29.30;28.05;;;30.80;32.00;;;;;;4963317;28;92025;-87
2021/05/10 08:39:04;;;;;;;147.00;141.05;;;32.30;32.10;;;;;;4964133;28;91740;-87
2021/05/10 08:41:30;;;;;;;109.43;105.10;;;31.50;31.20;;;;;;4971049;28;93242;-86
2021/05/10 08:43:58;;;;;;;143.52;137.82;;;31.50;32.00;;;;;;4960039;28;93588;-87
2021/05/10 08:46:24;;;;;;;141.75;135.98;;;32.10;31.10;;;;;;4961986;28;92113;-87
2021/05/10 08:48:50;;;;;;;168.02;160.98;;;33.00;29.50;;;;;;4964095;28;92162;-87
2021/05/10 08:51:16;;;;;;;129.70;124.47;;;31.90;30.00;;;;;;4960958;28;91931;-88
2021/05/10 08:53:42;;;;;;;138.23;132.65;;;31.60;30.10;;;;;;4960485;28;93558;-87
2021/05/10 08:56:09;;;;;;;132.25;126.93;;;31.50;31.00;;;;;;4961501;28;92790;-87
2021/05/10 08:58:40;;;;;;;125.82;120.72;;;31.50;30.70;;;;;;4962658;28;92052;-88
2021/05/10 09:01:07;;;;;;;191.75;184.23;;;30.70;31.20;;;;;;4937673;28;93958;-87
2021/05/10 09:03:47;;;;;;;211.68;203.30;;;29.40;32.10;;;;;;4960789;28;92521;-87
2021/05/10 09:06:18;;;;;;;256.17;246.40;;;28.70;32.80;;;;;;4957150;28;92949;-88
2021/05/10 09:08:46;;;;;;;190.32;183.13;;;27.50;33.50;;;;;;4962617;28;92254;-88
2021/05/10 09:11:13;;;;;;;183.23;176.25;;;26.50;34.90;;;;;;4961204;28;92073;-88
2021/05/10 09:13:40;;;;;;;143.98;138.40;;;26.10;35.70;;;;;;4961571;28;91961;-86
2021/05/10 09:16:07;;;;;;;72.40;69.47;;;25.90;35.80;;;;;;4968084;28;92299;-86
2021/05/10 09:18:33;;;;;;;80.30;77.10;;;26.10;36.30;;;;;;4963488;28;92133;-88
2021/05/10 09:21:13;;;;;;;79.32;76.07;;;26.20;36.60;;;;;;4963277;28;92281;-87
2021/05/10 09:23:40;;;;;;;89.70;86.00;;;25.90;35.50;;;;;;4942629;28;93553;-87
2021/05/10 09:26:07;;;;;;;101.53;97.47;;;25.40;35.80;;;;;;4962401;28;92612;-88
2021/05/10 09:28:41;;;;;;;75.63;72.57;;;25.20;35.70;;;;;;4950085;28;92077;-88
2021/05/10 09:31:14;;;;;;;67.20;64.50;;;25.40;36.10;;;;;;4960687;28;93201;-88
2021/05/10 09:33:45;;;;;;;123.38;118.57;;;26.10;35.30;;;;;;4968011;28;92190;-87
2021/05/10 09:36:35;;;;;;;160.02;153.82;;;26.90;35.90;;;;;;4965645;28;92039;-88
2021/05/10 09:39:02;;;;;;;166.52;159.85;;;28.80;33.20;;;;;;4949823;28;91978;-88
2021/05/10 09:41:28;;;;;;;169.07;162.50;;;30.30;32.60;;;;;;4962400;28;92348;-87
2021/05/10 09:44:07;;;;;;;167.20;160.73;;;30.00;31.20;;;;;;4971828;28;92020;-87
2021/05/10 09:46:43;;;;;;;177.73;170.98;;;28.80;32.20;;;;;;4971875;28;92042;-86
2021/05/10 09:49:11;;;;;;;166.80;160.45;;;29.80;31.60;;;;;;4953846;28;91109;-86
2021/05/10 09:51:37;;;;;;;201.07;193.25;;;30.50;31.10;;;;;;4966921;28;92379;-86
2021/05/10 09:54:13;;;;;;;251.65;241.73;;;29.90;30.80;;;;;;4976762;28;92459;-86
2021/05/10 09:56:39;;;;;;;186.95;179.43;;;29.80;31.30;;;;;;4978290;28;92898;-87
2021/05/10 09:59:16;;;;;;;275.80;264.92;;;30.70;30.90;;;;;;4974007;28;92024;-89
2021/05/10 10:01:46;;;;;;;211.50;202.93;;;30.80;30.00;;;;;;4973064;28;92738;-87
2021/05/10 10:04:14;;;;;;;152.73;146.48;;;32.30;30.70;;;;;;4973173;28;92540;-87
2021/05/10 10:06:40;;;;;;;158.80;152.38;;;32.80;29.30;;;;;;4971902;28;91964;-86
2021/05/10 10:09:06;;;;;;;183.43;176.07;;;34.30;29.40;;;;;;4969566;28;92012;-87
2021/05/10 10:11:33;;;;;;;116.35;111.75;;;35.30;28.30;;;;;;4969770;28;92321;-87
2021/05/10 10:14:01;;;;;;;97.63;93.68;;;34.50;28.70;;;;;;4979067;28;92156;-86
2021/05/10 10:16:29;;;;;;;97.40;93.38;;;33.10;28.90;;;;;;4968715;28;92113;-86
2021/05/10 10:18:59;;;;;;;76.70;73.50;;;31.60;29.40;;;;;;4957249;28;91957;-86
2021/05/10 10:21:26;;;;;;;72.72;69.88;;;29.80;30.80;;;;;;4966747;28;92967;-87
2021/05/10 10:24:00;;;;;;;76.05;72.68;;;28.90;31.30;;;;;;4968188;28;92272;-87
2021/05/10 10:26:27;;;;;;;183.80;176.50;;;28.30;31.70;;;;;;4971613;28;91736;-87
2021/05/10 10:28:53;;;;;;;177.70;170.70;;;27.80;32.40;;;;;;4960919;28;91439;-86
2021/05/10 10:31:27;;;;;;;283.98;272.90;;;27.60;32.80;;;;;;4954917;28;92406;-86
2021/05/10 10:34:17;;;;;;;319.77;307.02;;;26.90;32.80;;;;;;4963553;28;91806;-87
2021/05/10 10:36:46;;;;;;;227.48;218.70;;;26.90;33.10;;;;;;4971111;28;92017;-86
2021/05/10 10:39:11;;;;;;;226.68;218.23;;;26.60;33.90;;;;;;4962832;28;91285;-86
2021/05/10 10:41:50;;;;;;;248.32;238.88;;;26.40;33.20;;;;;;4965545;28;92086;-86
2021/05/10 10:44:42;;;;;;;255.30;245.80;;;26.40;32.70;;;;;;4969118;28;93488;-86
2021/05/10 10:47:10;;;;;;;233.57;224.60;;;26.50;35.30;;;;;;4964082;28;93494;-88
2021/05/10 10:49:41;;;;;;;287.60;276.73;;;26.60;33.70;;;;;;4963462;28;92009;-85
2021/05/10 10:52:23;;;;;;;202.45;194.50;;;26.60;33.40;;;;;;4969242;28;92237;-88
2021/05/10 10:55:15;;;;;;;144.55;139.00;;;26.60;33.60;;;;;;4969649;28;92663;-88
2021/05/10 10:57:42;;;;;;;127.30;122.30;;;27.00;33.40;;;;;;4962116;28;91983;-88
2021/05/10 11:00:10;;;;;;;163.80;157.38;;;27.20;33.80;;;;;;4966969;28;92100;-85
2021/05/10 11:02:52;;;;;;;168.52;161.73;;;27.20;33.30;;;;;;4965558;28;92084;-85
2021/05/10 11:05:22;;;;;;;241.48;232.70;;;27.30;33.30;;;;;;4967531;28;93288;-84
2021/05/10 11:08:00;;;;;;;222.13;213.75;;;27.40;32.30;;;;;;4950809;28;92018;-87
2021/05/10 11:10:50;;;;;;;231.63;222.95;;;27.40;32.80;;;;;;4951973;28;91681;-86
2021/05/10 11:13:28;;;;;;;228.38;220.02;;;27.70;32.20;;;;;;4963890;28;94121;-84
2021/05/10 11:15:58;;;;;;;241.35;232.32;;;27.80;32.70;;;;;;4962924;28;93041;-88
2021/05/10 11:18:54;;;;;;;215.25;206.88;;;28.00;31.90;;;;;;4964666;28;91961;-87
2021/05/10 11:21:23;;;;;;;205.77;197.88;;;27.70;33.60;;;;;;4966668;28;92107;-88
2021/05/10 11:23:56;;;;;;;179.13;172.30;;;28.00;32.70;;;;;;4976412;28;92343;-87
2021/05/10 11:26:45;;;;;;;203.48;195.48;;;28.40;32.90;;;;;;4965377;28;92043;-85
2021/05/10 11:29:33;;;;;;;163.82;157.35;;;28.50;31.90;;;;;;4968096;28;92081;-87
2021/05/10 11:32:18;;;;;;;148.43;142.57;;;28.50;33.00;;;;;;4951199;28;91476;-87
2021/05/10 11:34:45;;;;;;;209.80;201.77;;;28.20;33.10;;;;;;4966710;28;92371;-86
2021/05/10 11:37:12;;;;;;;138.45;132.63;;;28.50;32.30;;;;;;4963758;28;93005;-86
2021/05/10 11:39:39;;;;;;;199.80;191.93;;;28.80;33.40;;;;;;4972920;28;93069;-87
2021/05/10 11:42:12;;;;;;;169.52;162.52;;;29.30;32.20;;;;;;4964874;28;92028;-86
2021/05/10 11:44:43;;;;;;;156.70;150.50;;;30.00;33.50;;;;;;4959395;28;92352;-87
2021/05/10 11:47:11;;;;;;;170.45;163.80;;;30.60;31.60;;;;;;4970280;28;92169;-86
2021/05/10 11:49:38;;;;;;;227.30;218.43;;;31.50;30.70;;;;;;4973758;28;91781;-87
2021/05/10 11:52:09;;;;;;;288.60;277.23;;;31.90;30.60;;;;;;4969448;28;91920;-87
2021/05/10 11:54:38;;;;;;;135.90;130.40;;;31.30;31.30;;;;;;4971950;28;92342;-87
2021/05/10 11:57:05;;;;;;;145.65;139.45;;;31.30;30.00;;;;;;4973095;28;93050;-85
2021/05/10 12:02:02;;;;;;;130.18;124.93;;;30.10;30.50;;;;;;4975873;28;91927;-87
2021/05/10 12:04:31;;;;;;;237.75;228.20;;;29.90;31.20;;;;;;4969143;28;93273;-87
2021/05/10 12:06:58;;;;;;;204.00;196.10;;;29.90;32.40;;;;;;4965482;28;92405;-87
2021/05/10 12:09:36;;;;;;;163.68;157.05;;;29.90;30.50;;;;;;4969997;28;92198;-86
2021/05/10 12:12:19;;;;;;;153.65;147.40;;;29.50;31.70;;;;;;4964425;28;92017;-85
2021/05/10 12:14:49;;;;;;;158.05;151.73;;;29.40;31.00;;;;;;4968860;28;92311;-86
2021/05/10 12:17:17;;;;;;;169.15;162.45;;;29.00;31.40;;;;;;4971222;28;92576;-86
2021/05/10 12:20:09;;;;;;;205.27;196.85;;;28.70;32.20;;;;;;4955245;28;92024;-86
2021/05/10 12:22:38;;;;;;;192.80;185.15;;;28.60;32.10;;;;;;4972358;28;91162;-86
2021/05/10 12:25:08;;;;;;;132.35;126.88;;;28.80;34.60;;;;;;4958812;28;91944;-87
2021/05/10 12:27:36;;;;;;;;;;;28.80;37.80;;;;;;4969969;28;92989;-86
2021/05/10 12:30:16;;;;;;;80.05;76.75;;;28.40;38.80;;;;;;4962114;28;93098;-87
2021/05/10 12:32:43;;;;;;;29.20;27.90;;;28.30;39.30;;;;;;4969504;28;92116;-87
2021/05/10 12:35:15;;;;;;;22.80;21.80;;;27.90;40.60;;;;;;4966685;28;93226;-87
2021/05/10 12:37:46;;;;;;;47.42;45.53;;;27.60;41.40;;;;;;4972592;28;92048;-85
2021/05/10 12:40:14;;;;;;;62.65;60.05;;;27.20;42.20;;;;;;4967529;28;91958;-87
2021/05/10 12:42:41;;;;;;;119.93;115.20;;;26.80;44.40;;;;;;4960907;28;92093;-87
2021/05/10 12:45:13;;;;;;;101.30;97.25;;;26.50;45.00;;;;;;4971315;28;92342;-86
2021/05/10 12:47:47;;;;;;;137.90;132.30;;;26.30;45.80;;;;;;4962129;28;92432;-87
2021/05/10 12:50:40;;;;;;;84.20;80.75;;;26.20;47.60;;;;;;4969958;28;92272;-86
2021/05/10 12:53:06;;;;;;;20.40;19.15;;;26.20;47.90;;;;;;4973864;28;91738;-87
2021/05/10 12:55:34;;;;;;;20.60;19.25;;;26.00;47.50;;;;;;4968649;28;94609;-87
2021/05/10 12:58:23;;;;;;;22.38;21.17;;;26.10;48.20;;;;;;4965466;28;92231;-87
2021/05/10 13:00:50;;;;;;;26.77;25.38;;;26.00;48.90;;;;;;4962071;28;91843;-87
2021/05/10 13:03:34;;;;;;;40.38;38.55;;;25.90;48.80;;;;;;4964941;28;92153;-86
2021/05/10 13:06:01;;;;;;;37.22;35.65;;;26.10;48.90;;;;;;4965564;28;93268;-86
2021/05/10 13:08:50;;;;;;;46.17;44.13;;;26.10;48.40;;;;;;4965864;28;92344;-87
2021/05/10 13:11:24;;;;;;;28.80;27.58;;;26.20;47.90;;;;;;4963925;28;91907;-86
2021/05/10 13:33:23;;;;;;;94.88;91.03;;;25.40;47.60;;;;;;4965411;28;91295;-86
2021/05/10 13:35:56;;;;;;;112.70;108.05;;;25.20;47.90;;;;;;4969442;28;92204;-86
2021/05/10 13:38:22;;;;;;;81.82;78.40;;;25.10;47.60;;;;;;4956237;28;92801;-86
2021/05/10 13:40:48;;;;;;;130.75;125.25;;;25.10;48.10;;;;;;4959151;28;91204;-87
2021/05/10 13:43:28;;;;;;;97.05;93.20;;;25.00;49.00;;;;;;4961347;28;92327;-87
2021/05/10 13:45:56;;;;;;;90.00;86.45;;;25.10;48.90;;;;;;4960924;28;92272;-87
2021/05/10 13:48:23;;;;;;;93.60;89.80;;;25.10;49.80;;;;;;4969727;28;93863;-86
2021/05/10 13:50:48;;;;;;;96.60;92.85;;;25.10;49.70;;;;;;4966753;28;93403;-86
2021/05/10 13:53:14;;;;;;;81.00;77.75;;;25.10;49.10;;;;;;4959393;28;92427;-87
2021/05/10 13:55:40;;;;;;;95.80;91.95;;;25.10;49.40;;;;;;4969536;28;91768;-85
2021/05/10 13:58:05;;;;;;;78.65;75.30;;;24.90;48.70;;;;;;4967866;28;91961;-86
2021/05/10 14:00:32;;;;;;;47.25;45.08;;;24.90;48.90;;;;;;4957413;28;92166;-85
2021/05/10 14:02:57;;;;;;;46.05;43.88;;;24.70;49.20;;;;;;4955951;28;91975;-84
2021/05/10 14:05:23;;;;;;;39.67;38.00;;;24.60;49.80;;;;;;4964671;28;91416;-86
2021/05/10 14:07:49;;;;;;;59.05;56.58;;;24.50;50.40;;;;;;4963117;28;92517;-84
2021/05/10 14:10:16;;;;;;;39.63;37.92;;;24.30;50.50;;;;;;4964586;28;92338;-85
2021/05/10 14:12:42;;;;;;;50.55;48.28;;;24.20;51.70;;;;;;4964045;28;92886;-87
2021/05/10 14:15:09;;;;;;;56.20;53.75;;;24.00;52.60;;;;;;4965546;28;91771;-86
2021/05/10 14:17:35;;;;;;;94.03;90.28;;;23.90;53.10;;;;;;4968863;28;93148;-85
2021/05/10 14:20:02;;;;;;;103.32;99.03;;;23.80;53.00;;;;;;4967138;28;92434;-86
2021/05/10 14:22:28;;;;;;;139.85;134.30;;;23.70;53.00;;;;;;4967612;28;92053;-85
2021/05/10 14:24:54;;;;;;;136.73;131.35;;;23.80;53.30;;;;;;4967020;28;91789;-85
2021/05/10 14:27:21;;;;;;;137.95;132.63;;;23.90;53.80;;;;;;4966435;28;92005;-86
2021/05/10 14:29:46;;;;;;;151.98;145.75;;;24.00;52.60;;;;;;4968127;28;92071;-84
2021/05/10 14:32:12;;;;;;;124.43;119.53;;;24.20;52.50;;;;;;4967172;28;92016;-85
2021/05/10 14:34:38;;;;;;;181.18;174.15;;;24.30;51.40;;;;;;4953798;28;92098;-86
2021/05/10 14:37:04;;;;;;;152.70;146.60;;;24.40;52.00;;;;;;4966279;28;93467;-84
2021/05/10 14:39:30;;;;;;;185.48;178.40;;;24.40;51.90;;;;;;4967120;28;93342;-85
2021/05/10 14:41:55;;;;;;;184.73;177.57;;;24.50;53.50;;;;;;4966668;28;91838;-85
2021/05/10 14:44:22;;;;;;;152.40;146.45;;;24.40;53.00;;;;;;4966801;28;91920;-85
2021/05/10 14:46:48;;;;;;;159.23;152.80;;;24.20;52.90;;;;;;4964300;28;92312;-85
2021/05/10 14:49:15;;;;;;;180.80;173.82;;;23.90;52.80;;;;;;4967298;28;93039;-87
2021/05/10 14:51:40;;;;;;;177.60;170.75;;;23.80;53.40;;;;;;4946790;28;92092;-85
2021/05/10 14:54:09;;;;;;;154.25;148.13;;;23.50;53.10;;;;;;4964628;28;91818;-86
2021/05/10 14:56:35;;;;;;;127.38;122.43;;;23.40;53.40;;;;;;4964936;28;92257;-88
2021/05/10 14:59:03;;;;;;;81.93;78.65;;;23.40;53.90;;;;;;4964702;28;92128;-85
2021/05/10 15:01:32;;;;;;;70.95;67.88;;;23.20;53.70;;;;;;4964541;28;92767;-85
2021/05/10 15:03:58;;;;;;;53.70;51.33;;;23.10;55.10;;;;;;4953380;28;92106;-85
2021/05/10 15:06:23;;;;;;;56.20;53.80;;;23.10;56.30;;;;;;4964120;28;92214;-86
2021/05/10 15:08:49;;;;;;;48.90;46.85;;;22.90;56.70;;;;;;4964887;28;92959;-86
2021/05/10 15:11:15;;;;;;;55.15;52.75;;;22.70;56.90;;;;;;4965735;28;91789;-85
2021/05/10 15:13:42;;;;;;;34.05;32.42;;;22.50;57.20;;;;;;4965704;28;92225;-86
2021/05/10 15:16:08;;;;;;;31.63;30.02;;;22.30;58.20;;;;;;4965929;28;92328;-85
2021/05/10 15:18:34;;;;;;;27.73;26.10;;;22.10;59.00;;;;;;4962079;28;92816;-86
2021/05/10 15:21:01;;;;;;;25.00;23.40;;;22.00;59.50;;;;;;4947471;28;92243;-86
2021/05/10 15:23:27;;;;;;;29.48;28.00;;;21.90;59.60;;;;;;4957892;28;91989;-87
2021/05/10 15:25:53;;;;;;;53.55;50.95;;;;;;;;;;4959468;28;94345;-86
2021/05/10 15:28:19;;;;;;;35.15;33.65;;;21.70;60.30;;;;;;4948250;28;93203;-86
2021/05/10 15:30:45;;;;;;;20.45;19.17;;;21.60;61.50;;;;;;4957056;28;91972;-85
2021/05/10 15:33:10;;;;;;;28.02;26.42;;;21.50;61.70;;;;;;4962008;28;91938;-86
2021/05/10 15:35:36;;;;;;;38.33;36.67;;;21.40;62.10;;;;;;4964569;28;92206;-84
2021/05/10 15:38:02;;;;;;;47.60;45.30;;;21.40;62.50;;;;;;4965861;28;91977;-84
2021/05/10 15:40:28;;;;;;;63.08;60.35;;;21.30;63.20;;;;;;4965887;28;92040;-85
2021/05/10 15:42:54;;;;;;;51.83;49.65;;;21.20;63.50;;;;;;4964016;28;91534;-84
2021/05/10 15:45:22;;;;;;;43.28;41.50;;;21.20;63.90;;;;;;4962452;28;92664;-87
2021/05/10 15:47:52;;;;;;;27.25;26.02;;;21.10;63.70;;;;;;4964013;28;92428;-85
2021/05/10 15:50:24;;;;;;;21.33;20.42;;;21.10;64.50;;;;;;4965531;28;93175;-86